sensor_id;sensor_type;location;lat;lon;timestamp;P1;durP1;ratioP1;P2;durP2;ratioP2
17482;SDS011;8858;52.308;20.994;2023-03-01T00:01:50;35.43;;;23.03;;
17482;SDS011;8858;52.308;20.994;2023-03-01T00:04:18;38.73;;;24.40;;
17482;SDS011;8858;52.308;20.994;2023-03-01T00:06:51;40.43;;;23.80;;
17482;SDS011;8858;52.308;20.994;2023-03-01T00:09:20;40.13;;;25.10;;
17482;SDS011;8858;52.308;20.994;2023-03-01T00:11:50;41.10;;;24.67;;
17482;SDS011;8858;52.308;20.994;2023-03-01T00:14:20;38.90;;;24.33;;
17482;SDS011;8858;52.308;20.994;2023-03-01T00:16:48;43.63;;;26.17;;
17482;SDS011;8858;52.308;20.994;2023-03-01T00:19:19;36.03;;;23.57;;
17482;SDS011;8858;52.308;20.994;2023-03-01T00:21:50;38.30;;;24.10;;
17482;SDS011;8858;52.308;20.994;2023-03-01T00:24:19;41.63;;;24.60;;
17482;SDS011;8858;52.308;20.994;2023-03-01T00:26:53;41.33;;;25.10;;
17482;SDS011;8858;52.308;20.994;2023-03-01T00:29:23;37.17;;;24.17;;
17482;SDS011;8858;52.308;20.994;2023-03-01T00:31:52;41.67;;;24.47;;
17482;SDS011;8858;52.308;20.994;2023-03-01T00:34:21;44.03;;;24.43;;
17482;SDS011;8858;52.308;20.994;2023-03-01T00:36:49;46.13;;;24.00;;
17482;SDS011;8858;52.308;20.994;2023-03-01T00:39:19;44.10;;;25.43;;
17482;SDS011;8858;52.308;20.994;2023-03-01T00:41:48;44.67;;;26.60;;
17482;SDS011;8858;52.308;20.994;2023-03-01T00:44:17;39.20;;;25.40;;
17482;SDS011;8858;52.308;20.994;2023-03-01T00:46:48;42.80;;;26.37;;
17482;SDS011;8858;52.308;20.994;2023-03-01T00:49:17;44.70;;;25.60;;
17482;SDS011;8858;52.308;20.994;2023-03-01T00:51:45;45.27;;;26.03;;
17482;SDS011;8858;52.308;20.994;2023-03-01T00:54:14;47.17;;;27.90;;
17482;SDS011;8858;52.308;20.994;2023-03-01T00:56:46;49.33;;;29.10;;
17482;SDS011;8858;52.308;20.994;2023-03-01T00:59:15;47.13;;;28.93;;
17482;SDS011;8858;52.308;20.994;2023-03-01T01:01:45;47.40;;;27.63;;
17482;SDS011;8858;52.308;20.994;2023-03-01T01:04:14;55.83;;;31.27;;
17482;SDS011;8858;52.308;20.994;2023-03-01T01:06:43;50.43;;;27.67;;
17482;SDS011;8858;52.308;20.994;2023-03-01T01:09:13;49.80;;;30.43;;
17482;SDS011;8858;52.308;20.994;2023-03-01T01:11:46;52.10;;;31.23;;
17482;SDS011;8858;52.308;20.994;2023-03-01T01:14:15;49.40;;;29.67;;
17482;SDS011;8858;52.308;20.994;2023-03-01T01:16:46;52.47;;;29.63;;
17482;SDS011;8858;52.308;20.994;2023-03-01T01:19:15;53.60;;;29.80;;
17482;SDS011;8858;52.308;20.994;2023-03-01T01:21:44;50.70;;;29.43;;
17482;SDS011;8858;52.308;20.994;2023-03-01T01:24:13;50.07;;;30.47;;
17482;SDS011;8858;52.308;20.994;2023-03-01T01:26:42;54.47;;;29.83;;
17482;SDS011;8858;52.308;20.994;2023-03-01T01:29:11;44.93;;;28.30;;
17482;SDS011;8858;52.308;20.994;2023-03-01T01:31:41;51.70;;;30.07;;
17482;SDS011;8858;52.308;20.994;2023-03-01T01:34:13;52.53;;;29.90;;
17482;SDS011;8858;52.308;20.994;2023-03-01T01:36:44;46.20;;;28.93;;
17482;SDS011;8858;52.308;20.994;2023-03-01T01:39:16;49.97;;;29.70;;
17482;SDS011;8858;52.308;20.994;2023-03-01T01:41:45;51.57;;;30.50;;
17482;SDS011;8858;52.308;20.994;2023-03-01T01:44:15;47.60;;;28.73;;
17482;SDS011;8858;52.308;20.994;2023-03-01T01:46:47;46.53;;;28.00;;
17482;SDS011;8858;52.308;20.994;2023-03-01T01:49:27;48.33;;;27.83;;
17482;SDS011;8858;52.308;20.994;2023-03-01T01:52:02;45.63;;;28.53;;
17482;SDS011;8858;52.308;20.994;2023-03-01T01:54:39;45.60;;;28.00;;
17482;SDS011;8858;52.308;20.994;2023-03-01T01:57:13;44.67;;;26.63;;
17482;SDS011;8858;52.308;20.994;2023-03-01T01:59:48;45.33;;;27.47;;
17482;SDS011;8858;52.308;20.994;2023-03-01T02:02:20;44.80;;;26.40;;
17482;SDS011;8858;52.308;20.994;2023-03-01T02:04:52;45.37;;;27.90;;
17482;SDS011;8858;52.308;20.994;2023-03-01T02:07:26;44.33;;;27.20;;
17482;SDS011;8858;52.308;20.994;2023-03-01T02:09:55;46.30;;;27.93;;
17482;SDS011;8858;52.308;20.994;2023-03-01T02:12:28;49.93;;;29.07;;
17482;SDS011;8858;52.308;20.994;2023-03-01T02:14:58;47.20;;;28.00;;
17482;SDS011;8858;52.308;20.994;2023-03-01T02:17:26;44.93;;;27.77;;
17482;SDS011;8858;52.308;20.994;2023-03-01T02:20:00;44.13;;;26.63;;
17482;SDS011;8858;52.308;20.994;2023-03-01T02:22:36;46.53;;;28.13;;
17482;SDS011;8858;52.308;20.994;2023-03-01T02:25:08;48.23;;;29.73;;
17482;SDS011;8858;52.308;20.994;2023-03-01T02:27:48;53.33;;;29.90;;
17482;SDS011;8858;52.308;20.994;2023-03-01T02:30:23;45.03;;;28.30;;
17482;SDS011;8858;52.308;20.994;2023-03-01T02:32:52;47.27;;;28.00;;
17482;SDS011;8858;52.308;20.994;2023-03-01T02:35:30;47.20;;;27.77;;
17482;SDS011;8858;52.308;20.994;2023-03-01T02:38:08;44.90;;;27.77;;
17482;SDS011;8858;52.308;20.994;2023-03-01T02:40:37;45.90;;;27.60;;
17482;SDS011;8858;52.308;20.994;2023-03-01T02:43:07;45.67;;;27.47;;
17482;SDS011;8858;52.308;20.994;2023-03-01T02:45:47;45.37;;;28.37;;
17482;SDS011;8858;52.308;20.994;2023-03-01T02:48:16;47.73;;;27.63;;
17482;SDS011;8858;52.308;20.994;2023-03-01T02:50:49;45.70;;;28.60;;
17482;SDS011;8858;52.308;20.994;2023-03-01T02:53:27;47.60;;;25.97;;
17482;SDS011;8858;52.308;20.994;2023-03-01T02:56:04;44.53;;;27.07;;
17482;SDS011;8858;52.308;20.994;2023-03-01T02:58:41;45.70;;;27.03;;
17482;SDS011;8858;52.308;20.994;2023-03-01T03:01:16;48.00;;;27.53;;
17482;SDS011;8858;52.308;20.994;2023-03-01T03:03:49;45.90;;;26.93;;
17482;SDS011;8858;52.308;20.994;2023-03-01T03:06:19;49.93;;;27.57;;
17482;SDS011;8858;52.308;20.994;2023-03-01T03:08:48;48.07;;;26.53;;
17482;SDS011;8858;52.308;20.994;2023-03-01T03:11:17;48.90;;;28.43;;
17482;SDS011;8858;52.308;20.994;2023-03-01T03:13:47;49.50;;;28.07;;
17482;SDS011;8858;52.308;20.994;2023-03-01T03:16:19;46.50;;;25.57;;
17482;SDS011;8858;52.308;20.994;2023-03-01T03:18:48;46.50;;;27.47;;
17482;SDS011;8858;52.308;20.994;2023-03-01T03:21:17;45.77;;;27.30;;
17482;SDS011;8858;52.308;20.994;2023-03-01T03:23:45;46.27;;;25.33;;
17482;SDS011;8858;52.308;20.994;2023-03-01T03:26:13;43.93;;;27.37;;
17482;SDS011;8858;52.308;20.994;2023-03-01T03:29:06;40.67;;;24.63;;
17482;SDS011;8858;52.308;20.994;2023-03-01T03:31:36;41.77;;;25.23;;
17482;SDS011;8858;52.308;20.994;2023-03-01T03:34:04;40.17;;;24.50;;
17482;SDS011;8858;52.308;20.994;2023-03-01T03:36:36;45.10;;;26.93;;
17482;SDS011;8858;52.308;20.994;2023-03-01T03:39:05;39.83;;;24.63;;
17482;SDS011;8858;52.308;20.994;2023-03-01T03:41:34;37.23;;;24.33;;
17482;SDS011;8858;52.308;20.994;2023-03-01T03:44:03;42.77;;;25.17;;
17482;SDS011;8858;52.308;20.994;2023-03-01T03:46:32;43.03;;;25.17;;
17482;SDS011;8858;52.308;20.994;2023-03-01T03:49:06;42.10;;;24.40;;
17482;SDS011;8858;52.308;20.994;2023-03-01T03:51:35;45.53;;;25.63;;
17482;SDS011;8858;52.308;20.994;2023-03-01T03:54:04;43.97;;;25.97;;
17482;SDS011;8858;52.308;20.994;2023-03-01T03:56:36;42.63;;;25.90;;
17482;SDS011;8858;52.308;20.994;2023-03-01T03:59:05;44.60;;;24.13;;
17482;SDS011;8858;52.308;20.994;2023-03-01T04:01:34;43.73;;;25.67;;
17482;SDS011;8858;52.308;20.994;2023-03-01T04:04:03;44.77;;;25.83;;
17482;SDS011;8858;52.308;20.994;2023-03-01T04:06:33;42.73;;;26.67;;
17482;SDS011;8858;52.308;20.994;2023-03-01T04:09:04;43.93;;;25.80;;
17482;SDS011;8858;52.308;20.994;2023-03-01T04:11:33;43.20;;;26.17;;
17482;SDS011;8858;52.308;20.994;2023-03-01T04:14:02;44.60;;;25.27;;
17482;SDS011;8858;52.308;20.994;2023-03-01T04:16:31;44.77;;;24.70;;
17482;SDS011;8858;52.308;20.994;2023-03-01T04:19:00;44.03;;;24.37;;
17482;SDS011;8858;52.308;20.994;2023-03-01T04:21:33;40.43;;;24.90;;
17482;SDS011;8858;52.308;20.994;2023-03-01T04:24:02;39.23;;;24.93;;
17482;SDS011;8858;52.308;20.994;2023-03-01T04:26:31;40.83;;;24.83;;
17482;SDS011;8858;52.308;20.994;2023-03-01T04:29:00;42.83;;;26.30;;
17482;SDS011;8858;52.308;20.994;2023-03-01T04:31:29;42.87;;;25.97;;
17482;SDS011;8858;52.308;20.994;2023-03-01T04:33:57;44.30;;;27.13;;
17482;SDS011;8858;52.308;20.994;2023-03-01T04:36:27;42.10;;;24.53;;
17482;SDS011;8858;52.308;20.994;2023-03-01T04:38:58;44.23;;;25.10;;
17482;SDS011;8858;52.308;20.994;2023-03-01T04:41:40;41.83;;;25.73;;
17482;SDS011;8858;52.308;20.994;2023-03-01T04:44:09;43.13;;;24.70;;
17482;SDS011;8858;52.308;20.994;2023-03-01T04:46:37;39.00;;;24.80;;
17482;SDS011;8858;52.308;20.994;2023-03-01T04:49:06;45.33;;;26.03;;
17482;SDS011;8858;52.308;20.994;2023-03-01T04:51:37;44.23;;;25.50;;
17482;SDS011;8858;52.308;20.994;2023-03-01T04:54:07;44.73;;;24.60;;
17482;SDS011;8858;52.308;20.994;2023-03-01T04:56:37;46.60;;;25.73;;
17482;SDS011;8858;52.308;20.994;2023-03-01T04:59:06;49.97;;;26.30;;
17482;SDS011;8858;52.308;20.994;2023-03-01T05:01:39;47.67;;;27.13;;
17482;SDS011;8858;52.308;20.994;2023-03-01T05:04:10;49.07;;;25.50;;
17482;SDS011;8858;52.308;20.994;2023-03-01T05:06:39;45.80;;;26.30;;
17482;SDS011;8858;52.308;20.994;2023-03-01T05:09:09;47.10;;;27.57;;
17482;SDS011;8858;52.308;20.994;2023-03-01T05:11:39;48.13;;;27.67;;
17482;SDS011;8858;52.308;20.994;2023-03-01T05:14:09;47.87;;;28.03;;
17482;SDS011;8858;52.308;20.994;2023-03-01T05:16:38;45.80;;;27.53;;
17482;SDS011;8858;52.308;20.994;2023-03-01T05:19:07;50.47;;;27.63;;
17482;SDS011;8858;52.308;20.994;2023-03-01T05:21:42;49.10;;;27.47;;
17482;SDS011;8858;52.308;20.994;2023-03-01T05:24:26;51.33;;;30.07;;
17482;SDS011;8858;52.308;20.994;2023-03-01T05:26:56;50.17;;;27.97;;
17482;SDS011;8858;52.308;20.994;2023-03-01T05:29:25;48.53;;;29.30;;
17482;SDS011;8858;52.308;20.994;2023-03-01T05:31:57;49.83;;;29.30;;
17482;SDS011;8858;52.308;20.994;2023-03-01T05:34:28;59.10;;;31.20;;
17482;SDS011;8858;52.308;20.994;2023-03-01T05:36:57;52.30;;;30.33;;
17482;SDS011;8858;52.308;20.994;2023-03-01T05:39:28;46.37;;;27.93;;
17482;SDS011;8858;52.308;20.994;2023-03-01T05:42:00;53.70;;;30.30;;
17482;SDS011;8858;52.308;20.994;2023-03-01T05:44:29;51.67;;;30.13;;
17482;SDS011;8858;52.308;20.994;2023-03-01T05:46:57;58.90;;;31.67;;
17482;SDS011;8858;52.308;20.994;2023-03-01T05:49:25;52.97;;;29.70;;
17482;SDS011;8858;52.308;20.994;2023-03-01T05:51:54;49.20;;;30.10;;
17482;SDS011;8858;52.308;20.994;2023-03-01T05:54:23;55.90;;;32.47;;
17482;SDS011;8858;52.308;20.994;2023-03-01T05:56:54;58.90;;;30.63;;
17482;SDS011;8858;52.308;20.994;2023-03-01T05:59:23;57.17;;;32.77;;
17482;SDS011;8858;52.308;20.994;2023-03-01T06:01:51;57.83;;;33.23;;
17482;SDS011;8858;52.308;20.994;2023-03-01T06:04:19;58.93;;;33.33;;
17482;SDS011;8858;52.308;20.994;2023-03-01T06:06:48;64.10;;;33.20;;
17482;SDS011;8858;52.308;20.994;2023-03-01T06:09:16;57.17;;;33.00;;
17482;SDS011;8858;52.308;20.994;2023-03-01T06:11:44;57.17;;;32.13;;
17482;SDS011;8858;52.308;20.994;2023-03-01T06:14:14;50.73;;;29.47;;
17482;SDS011;8858;52.308;20.994;2023-03-01T06:16:42;52.30;;;29.87;;
17482;SDS011;8858;52.308;20.994;2023-03-01T06:19:10;52.00;;;29.00;;
17482;SDS011;8858;52.308;20.994;2023-03-01T06:21:39;45.50;;;28.63;;
17482;SDS011;8858;52.308;20.994;2023-03-01T06:24:08;47.63;;;28.40;;
17482;SDS011;8858;52.308;20.994;2023-03-01T06:26:36;47.33;;;27.97;;
17482;SDS011;8858;52.308;20.994;2023-03-01T06:29:04;52.23;;;29.93;;
17482;SDS011;8858;52.308;20.994;2023-03-01T06:31:35;52.53;;;29.50;;
17482;SDS011;8858;52.308;20.994;2023-03-01T06:34:03;48.60;;;27.73;;
17482;SDS011;8858;52.308;20.994;2023-03-01T06:36:32;47.87;;;28.60;;
17482;SDS011;8858;52.308;20.994;2023-03-01T06:39:01;51.53;;;28.97;;
17482;SDS011;8858;52.308;20.994;2023-03-01T06:41:29;49.27;;;27.77;;
17482;SDS011;8858;52.308;20.994;2023-03-01T06:43:57;47.37;;;29.10;;
17482;SDS011;8858;52.308;20.994;2023-03-01T06:46:26;44.70;;;27.33;;
17482;SDS011;8858;52.308;20.994;2023-03-01T06:48:56;51.03;;;28.57;;
17482;SDS011;8858;52.308;20.994;2023-03-01T06:51:25;53.40;;;29.37;;
17482;SDS011;8858;52.308;20.994;2023-03-01T06:53:53;50.93;;;28.53;;
17482;SDS011;8858;52.308;20.994;2023-03-01T06:56:22;54.97;;;30.17;;
17482;SDS011;8858;52.308;20.994;2023-03-01T06:58:50;51.37;;;29.33;;
17482;SDS011;8858;52.308;20.994;2023-03-01T07:01:18;50.03;;;29.20;;
17482;SDS011;8858;52.308;20.994;2023-03-01T07:03:46;54.30;;;31.47;;
17482;SDS011;8858;52.308;20.994;2023-03-01T07:06:16;51.40;;;29.90;;
17482;SDS011;8858;52.308;20.994;2023-03-01T07:08:46;47.97;;;29.33;;
17482;SDS011;8858;52.308;20.994;2023-03-01T07:11:15;52.03;;;28.17;;
17482;SDS011;8858;52.308;20.994;2023-03-01T07:13:44;48.57;;;29.03;;
17482;SDS011;8858;52.308;20.994;2023-03-01T07:16:12;50.87;;;27.10;;
17482;SDS011;8858;52.308;20.994;2023-03-01T07:18:41;48.97;;;28.33;;
17482;SDS011;8858;52.308;20.994;2023-03-01T07:21:10;49.50;;;28.57;;
17482;SDS011;8858;52.308;20.994;2023-03-01T07:23:42;53.13;;;27.87;;
17482;SDS011;8858;52.308;20.994;2023-03-01T07:26:10;53.83;;;28.23;;
17482;SDS011;8858;52.308;20.994;2023-03-01T07:28:39;48.90;;;28.20;;
17482;SDS011;8858;52.308;20.994;2023-03-01T07:31:07;50.53;;;27.53;;
17482;SDS011;8858;52.308;20.994;2023-03-01T07:33:35;45.90;;;26.83;;
17482;SDS011;8858;52.308;20.994;2023-03-01T07:36:04;47.63;;;26.23;;
17482;SDS011;8858;52.308;20.994;2023-03-01T07:38:33;48.63;;;26.60;;
17482;SDS011;8858;52.308;20.994;2023-03-01T07:41:03;49.07;;;26.83;;
17482;SDS011;8858;52.308;20.994;2023-03-01T07:43:32;40.37;;;26.47;;
17482;SDS011;8858;52.308;20.994;2023-03-01T07:46:01;49.97;;;27.03;;
17482;SDS011;8858;52.308;20.994;2023-03-01T07:48:30;41.03;;;24.63;;
17482;SDS011;8858;52.308;20.994;2023-03-01T07:51:04;43.70;;;25.03;;
17482;SDS011;8858;52.308;20.994;2023-03-01T07:53:34;37.43;;;23.40;;
17482;SDS011;8858;52.308;20.994;2023-03-01T07:56:05;37.40;;;21.10;;
17482;SDS011;8858;52.308;20.994;2023-03-01T07:58:38;42.30;;;23.07;;
17482;SDS011;8858;52.308;20.994;2023-03-01T08:01:08;38.57;;;22.83;;
17482;SDS011;8858;52.308;20.994;2023-03-01T08:03:38;32.67;;;20.77;;
17482;SDS011;8858;52.308;20.994;2023-03-01T08:06:07;34.93;;;20.93;;
17482;SDS011;8858;52.308;20.994;2023-03-01T08:08:39;36.17;;;20.90;;
17482;SDS011;8858;52.308;20.994;2023-03-01T08:11:10;32.47;;;18.17;;
17482;SDS011;8858;52.308;20.994;2023-03-01T08:13:42;29.20;;;18.33;;
17482;SDS011;8858;52.308;20.994;2023-03-01T08:16:13;32.00;;;18.33;;
17482;SDS011;8858;52.308;20.994;2023-03-01T08:18:44;29.37;;;18.80;;
17482;SDS011;8858;52.308;20.994;2023-03-01T08:21:13;31.77;;;18.60;;
17482;SDS011;8858;52.308;20.994;2023-03-01T08:23:43;34.40;;;20.20;;
17482;SDS011;8858;52.308;20.994;2023-03-01T08:26:14;28.40;;;18.73;;
17482;SDS011;8858;52.308;20.994;2023-03-01T08:28:45;29.57;;;19.30;;
17482;SDS011;8858;52.308;20.994;2023-03-01T08:31:15;28.87;;;19.07;;
17482;SDS011;8858;52.308;20.994;2023-03-01T08:33:50;29.37;;;18.37;;
17482;SDS011;8858;52.308;20.994;2023-03-01T08:36:22;30.87;;;17.97;;
17482;SDS011;8858;52.308;20.994;2023-03-01T08:38:51;28.90;;;18.73;;
17482;SDS011;8858;52.308;20.994;2023-03-01T08:41:21;29.63;;;17.67;;
17482;SDS011;8858;52.308;20.994;2023-03-01T08:43:52;29.17;;;17.93;;
17482;SDS011;8858;52.308;20.994;2023-03-01T08:46:25;30.97;;;18.70;;
17482;SDS011;8858;52.308;20.994;2023-03-01T08:48:54;29.97;;;16.40;;
17482;SDS011;8858;52.308;20.994;2023-03-01T08:51:26;22.40;;;15.73;;
17482;SDS011;8858;52.308;20.994;2023-03-01T08:53:55;23.80;;;14.93;;
17482;SDS011;8858;52.308;20.994;2023-03-01T08:56:25;25.00;;;16.17;;
17482;SDS011;8858;52.308;20.994;2023-03-01T08:58:53;25.53;;;16.57;;
17482;SDS011;8858;52.308;20.994;2023-03-01T09:01:21;24.43;;;15.70;;
17482;SDS011;8858;52.308;20.994;2023-03-01T09:03:49;26.10;;;16.13;;
17482;SDS011;8858;52.308;20.994;2023-03-01T09:06:17;27.70;;;17.77;;
17482;SDS011;8858;52.308;20.994;2023-03-01T09:08:49;26.07;;;17.47;;
17482;SDS011;8858;52.308;20.994;2023-03-01T09:11:18;27.00;;;17.43;;
17482;SDS011;8858;52.308;20.994;2023-03-01T09:13:50;28.93;;;17.77;;
17482;SDS011;8858;52.308;20.994;2023-03-01T09:16:22;28.10;;;17.73;;
17482;SDS011;8858;52.308;20.994;2023-03-01T09:18:51;27.63;;;17.67;;
17482;SDS011;8858;52.308;20.994;2023-03-01T09:21:22;27.67;;;17.40;;
17482;SDS011;8858;52.308;20.994;2023-03-01T09:24:05;26.67;;;17.83;;
17482;SDS011;8858;52.308;20.994;2023-03-01T09:26:34;25.80;;;17.83;;
17482;SDS011;8858;52.308;20.994;2023-03-01T09:29:03;27.47;;;17.80;;
17482;SDS011;8858;52.308;20.994;2023-03-01T09:31:32;27.07;;;17.07;;
17482;SDS011;8858;52.308;20.994;2023-03-01T09:34:01;24.90;;;16.90;;
17482;SDS011;8858;52.308;20.994;2023-03-01T09:36:29;26.10;;;17.00;;
17482;SDS011;8858;52.308;20.994;2023-03-01T09:38:59;26.73;;;16.67;;
17482;SDS011;8858;52.308;20.994;2023-03-01T09:44:32;31.20;;;17.17;;
17482;SDS011;8858;52.308;20.994;2023-03-01T09:47:09;25.13;;;16.43;;
17482;SDS011;8858;52.308;20.994;2023-03-01T09:49:44;27.47;;;15.70;;
17482;SDS011;8858;52.308;20.994;2023-03-01T09:52:21;27.37;;;16.67;;
17482;SDS011;8858;52.308;20.994;2023-03-01T09:54:59;26.03;;;16.03;;
17482;SDS011;8858;52.308;20.994;2023-03-01T09:57:33;36.10;;;21.73;;
17482;SDS011;8858;52.308;20.994;2023-03-01T10:00:14;23.43;;;17.03;;
17482;SDS011;8858;52.308;20.994;2023-03-01T10:02:55;24.77;;;16.23;;
17482;SDS011;8858;52.308;20.994;2023-03-01T10:05:34;24.03;;;15.57;;
17482;SDS011;8858;52.308;20.994;2023-03-01T10:08:23;23.40;;;15.03;;
17482;SDS011;8858;52.308;20.994;2023-03-01T10:11:03;23.77;;;14.03;;
17482;SDS011;8858;52.308;20.994;2023-03-01T10:13:37;25.53;;;13.60;;
17482;SDS011;8858;52.308;20.994;2023-03-01T10:16:18;25.57;;;13.73;;
17482;SDS011;8858;52.308;20.994;2023-03-01T10:18:51;14.87;;;11.10;;
17482;SDS011;8858;52.308;20.994;2023-03-01T10:21:25;18.97;;;11.93;;
17482;SDS011;8858;52.308;20.994;2023-03-01T10:23:55;20.33;;;12.07;;
17482;SDS011;8858;52.308;20.994;2023-03-01T10:26:37;19.17;;;12.03;;
17482;SDS011;8858;52.308;20.994;2023-03-01T10:29:14;18.30;;;12.37;;
17482;SDS011;8858;52.308;20.994;2023-03-01T10:31:45;15.97;;;11.13;;
17482;SDS011;8858;52.308;20.994;2023-03-01T10:34:16;16.60;;;11.33;;
17482;SDS011;8858;52.308;20.994;2023-03-01T10:36:49;15.73;;;10.37;;
17482;SDS011;8858;52.308;20.994;2023-03-01T10:39:19;16.50;;;10.63;;
17482;SDS011;8858;52.308;20.994;2023-03-01T10:41:54;17.70;;;10.57;;
17482;SDS011;8858;52.308;20.994;2023-03-01T10:44:38;16.77;;;10.70;;
17482;SDS011;8858;52.308;20.994;2023-03-01T10:47:18;14.47;;;10.53;;
17482;SDS011;8858;52.308;20.994;2023-03-01T10:49:55;18.47;;;11.13;;
17482;SDS011;8858;52.308;20.994;2023-03-01T10:52:28;17.30;;;10.60;;
17482;SDS011;8858;52.308;20.994;2023-03-01T10:54:59;18.23;;;10.53;;
17482;SDS011;8858;52.308;20.994;2023-03-01T10:57:35;15.63;;;10.30;;
17482;SDS011;8858;52.308;20.994;2023-03-01T11:00:22;15.77;;;10.67;;
17482;SDS011;8858;52.308;20.994;2023-03-01T11:03:09;16.03;;;10.77;;
17482;SDS011;8858;52.308;20.994;2023-03-01T11:05:49;15.57;;;10.37;;
17482;SDS011;8858;52.308;20.994;2023-03-01T11:08:31;14.63;;;9.57;;
17482;SDS011;8858;52.308;20.994;2023-03-01T11:13:54;14.50;;;9.80;;
17482;SDS011;8858;52.308;20.994;2023-03-01T11:16:27;20.90;;;10.47;;
17482;SDS011;8858;52.308;20.994;2023-03-01T11:19:00;15.47;;;9.53;;
17482;SDS011;8858;52.308;20.994;2023-03-01T11:21:42;15.73;;;10.70;;
17482;SDS011;8858;52.308;20.994;2023-03-01T11:24:18;14.97;;;10.27;;
17482;SDS011;8858;52.308;20.994;2023-03-01T11:26:47;13.80;;;9.93;;
17482;SDS011;8858;52.308;20.994;2023-03-01T11:29:25;13.60;;;10.23;;
17482;SDS011;8858;52.308;20.994;2023-03-01T11:32:13;16.37;;;10.20;;
17482;SDS011;8858;52.308;20.994;2023-03-01T11:34:47;16.20;;;11.07;;
17482;SDS011;8858;52.308;20.994;2023-03-01T11:37:26;18.47;;;12.07;;
17482;SDS011;8858;52.308;20.994;2023-03-01T11:40:03;16.47;;;11.47;;
17482;SDS011;8858;52.308;20.994;2023-03-01T11:42:46;17.57;;;10.43;;
17482;SDS011;8858;52.308;20.994;2023-03-01T11:45:22;57.70;;;40.50;;
17482;SDS011;8858;52.308;20.994;2023-03-01T11:48:02;19.53;;;12.53;;
17482;SDS011;8858;52.308;20.994;2023-03-01T11:50:44;19.97;;;11.93;;
17482;SDS011;8858;52.308;20.994;2023-03-01T11:53:28;20.60;;;12.60;;
17482;SDS011;8858;52.308;20.994;2023-03-01T11:56:35;18.20;;;11.40;;
17482;SDS011;8858;52.308;20.994;2023-03-01T11:59:25;16.37;;;12.40;;
17482;SDS011;8858;52.308;20.994;2023-03-01T12:02:21;17.77;;;12.07;;
17482;SDS011;8858;52.308;20.994;2023-03-01T12:05:19;20.33;;;13.00;;
17482;SDS011;8858;52.308;20.994;2023-03-01T12:07:59;16.60;;;12.70;;
17482;SDS011;8858;52.308;20.994;2023-03-01T12:10:35;18.87;;;13.53;;
17482;SDS011;8858;52.308;20.994;2023-03-01T12:13:23;19.67;;;13.97;;
17482;SDS011;8858;52.308;20.994;2023-03-01T12:16:20;22.07;;;14.17;;
17482;SDS011;8858;52.308;20.994;2023-03-01T12:19:13;17.87;;;12.97;;
17482;SDS011;8858;52.308;20.994;2023-03-01T12:22:04;21.30;;;14.23;;
17482;SDS011;8858;52.308;20.994;2023-03-01T12:24:56;21.23;;;14.67;;
17482;SDS011;8858;52.308;20.994;2023-03-01T12:27:50;18.93;;;14.80;;
17482;SDS011;8858;52.308;20.994;2023-03-01T12:30:53;18.03;;;13.20;;
17482;SDS011;8858;52.308;20.994;2023-03-01T12:33:35;19.60;;;13.00;;
17482;SDS011;8858;52.308;20.994;2023-03-01T12:36:29;19.03;;;14.03;;
17482;SDS011;8858;52.308;20.994;2023-03-01T12:39:20;21.03;;;14.80;;
17482;SDS011;8858;52.308;20.994;2023-03-01T12:42:03;27.80;;;15.30;;
17482;SDS011;8858;52.308;20.994;2023-03-01T12:44:46;19.57;;;14.23;;
17482;SDS011;8858;52.308;20.994;2023-03-01T12:47:26;24.30;;;14.80;;
17482;SDS011;8858;52.308;20.994;2023-03-01T12:50:10;20.80;;;15.47;;
17482;SDS011;8858;52.308;20.994;2023-03-01T12:52:44;22.90;;;16.37;;
17482;SDS011;8858;52.308;20.994;2023-03-01T12:55:19;23.30;;;15.20;;
17482;SDS011;8858;52.308;20.994;2023-03-01T12:57:57;20.10;;;14.80;;
17482;SDS011;8858;52.308;20.994;2023-03-01T13:00:37;19.10;;;14.23;;
17482;SDS011;8858;52.308;20.994;2023-03-01T13:03:18;19.83;;;15.27;;
17482;SDS011;8858;52.308;20.994;2023-03-01T13:06:02;21.73;;;14.10;;
17482;SDS011;8858;52.308;20.994;2023-03-01T13:08:36;19.87;;;15.23;;
17482;SDS011;8858;52.308;20.994;2023-03-01T13:11:14;19.20;;;14.30;;
17482;SDS011;8858;52.308;20.994;2023-03-01T13:13:47;21.10;;;13.90;;
17482;SDS011;8858;52.308;20.994;2023-03-01T13:16:22;18.60;;;14.03;;
17482;SDS011;8858;52.308;20.994;2023-03-01T13:19:10;18.53;;;12.70;;
17482;SDS011;8858;52.308;20.994;2023-03-01T13:21:42;16.47;;;13.80;;
17482;SDS011;8858;52.308;20.994;2023-03-01T13:24:25;18.00;;;14.00;;
17482;SDS011;8858;52.308;20.994;2023-03-01T13:27:11;17.20;;;12.87;;
17482;SDS011;8858;52.308;20.994;2023-03-01T13:29:55;19.47;;;12.70;;
17482;SDS011;8858;52.308;20.994;2023-03-01T13:32:26;15.23;;;11.23;;
17482;SDS011;8858;52.308;20.994;2023-03-01T13:41:06;18.63;;;11.87;;
17482;SDS011;8858;52.308;20.994;2023-03-01T13:43:35;17.67;;;12.63;;
17482;SDS011;8858;52.308;20.994;2023-03-01T13:46:11;18.03;;;12.67;;
17482;SDS011;8858;52.308;20.994;2023-03-01T13:48:45;22.57;;;13.27;;
17482;SDS011;8858;52.308;20.994;2023-03-01T13:51:21;17.70;;;12.73;;
17482;SDS011;8858;52.308;20.994;2023-03-01T13:53:53;19.60;;;13.07;;
17482;SDS011;8858;52.308;20.994;2023-03-01T13:56:25;16.80;;;12.87;;
17482;SDS011;8858;52.308;20.994;2023-03-01T13:58:58;17.67;;;13.00;;
17482;SDS011;8858;52.308;20.994;2023-03-01T14:01:32;17.00;;;14.00;;
17482;SDS011;8858;52.308;20.994;2023-03-01T14:04:02;17.07;;;14.43;;
17482;SDS011;8858;52.308;20.994;2023-03-01T14:06:46;18.90;;;14.90;;
17482;SDS011;8858;52.308;20.994;2023-03-01T14:09:16;20.20;;;13.87;;
17482;SDS011;8858;52.308;20.994;2023-03-01T14:14:46;19.40;;;14.87;;
17482;SDS011;8858;52.308;20.994;2023-03-01T14:20:30;23.47;;;15.23;;
17482;SDS011;8858;52.308;20.994;2023-03-01T14:23:02;22.63;;;14.53;;
17482;SDS011;8858;52.308;20.994;2023-03-01T14:25:45;23.37;;;15.60;;
17482;SDS011;8858;52.308;20.994;2023-03-01T14:28:16;19.70;;;14.93;;
17482;SDS011;8858;52.308;20.994;2023-03-01T14:30:48;17.97;;;14.97;;
17482;SDS011;8858;52.308;20.994;2023-03-01T14:33:20;21.27;;;15.80;;
17482;SDS011;8858;52.308;20.994;2023-03-01T14:35:54;21.60;;;15.47;;
17482;SDS011;8858;52.308;20.994;2023-03-01T14:38:29;20.33;;;15.27;;
17482;SDS011;8858;52.308;20.994;2023-03-01T14:41:04;20.47;;;15.47;;
17482;SDS011;8858;52.308;20.994;2023-03-01T14:43:35;21.33;;;15.73;;
17482;SDS011;8858;52.308;20.994;2023-03-01T14:46:16;20.73;;;15.93;;
17482;SDS011;8858;52.308;20.994;2023-03-01T14:48:49;21.67;;;15.10;;
17482;SDS011;8858;52.308;20.994;2023-03-01T14:51:18;22.50;;;16.77;;
17482;SDS011;8858;52.308;20.994;2023-03-01T14:53:47;22.10;;;16.20;;
17482;SDS011;8858;52.308;20.994;2023-03-01T14:56:17;22.10;;;15.70;;
17482;SDS011;8858;52.308;20.994;2023-03-01T14:58:46;20.00;;;15.13;;
17482;SDS011;8858;52.308;20.994;2023-03-01T15:01:19;24.40;;;15.63;;
17482;SDS011;8858;52.308;20.994;2023-03-01T15:03:51;21.03;;;16.07;;
17482;SDS011;8858;52.308;20.994;2023-03-01T15:06:20;20.93;;;16.20;;
17482;SDS011;8858;52.308;20.994;2023-03-01T15:08:54;22.50;;;16.07;;
17482;SDS011;8858;52.308;20.994;2023-03-01T15:11:25;24.00;;;16.97;;
17482;SDS011;8858;52.308;20.994;2023-03-01T15:13:56;23.80;;;17.13;;